createdAt,value
2022-10-11T00:00:32.532Z,17
2022-10-11T00:03:03.151Z,17
2022-10-11T00:05:33.535Z,17
2022-10-11T00:08:05.277Z,17
2022-10-11T00:10:36.464Z,17
2022-10-11T00:13:07.666Z,16.9
2022-10-11T00:15:38.132Z,17
2022-10-11T00:18:08.971Z,17
2022-10-11T00:20:40.048Z,16.9
2022-10-11T00:23:11.193Z,16.9
2022-10-11T00:25:42.392Z,16.9
2022-10-11T00:28:12.836Z,16.9
2022-10-11T00:30:44.326Z,16.9
2022-10-11T00:33:15.691Z,17
2022-10-11T00:35:46.847Z,16.9
2022-10-11T00:38:17.985Z,16.9
2022-10-11T00:40:48.749Z,17
2022-10-11T00:43:19.862Z,16.9
2022-10-11T00:45:51.221Z,16.9
2022-10-11T00:48:22.374Z,16.9
2022-10-11T00:50:53.109Z,16.9
2022-10-11T00:53:26.402Z,16.8
2022-10-11T00:55:58.187Z,16.9
2022-10-11T00:58:29.099Z,16.8
2022-10-11T01:01:00.013Z,16.8
2022-10-11T01:03:30.531Z,16.8
2022-10-11T01:06:02.051Z,16.7
2022-10-11T01:08:32.443Z,16.8
2022-10-11T01:11:03.394Z,16.8
2022-10-11T01:13:36.499Z,16.8
2022-10-11T01:16:08.654Z,16.7
2022-10-11T01:18:41.896Z,16.8
2022-10-11T01:21:12.685Z,16.7
2022-10-11T01:23:44.803Z,16.8
2022-10-11T01:26:17.085Z,16.7
2022-10-11T01:28:48.421Z,16.7
2022-10-11T01:31:20.300Z,16.6
2022-10-11T01:33:51.349Z,16.6
2022-10-11T01:36:22.304Z,16.6
2022-10-11T01:38:53.477Z,16.6
2022-10-11T01:41:24.370Z,16.5
2022-10-11T01:43:55.638Z,16.5
2022-10-11T01:46:27.130Z,16.3
2022-10-11T01:49:01.939Z,16.4
2022-10-11T01:51:32.677Z,16.4
2022-10-11T01:54:06.561Z,16.4
2022-10-11T01:56:37.388Z,16.4
2022-10-11T01:59:10.300Z,16.4
2022-10-11T02:01:41.122Z,16.4
2022-10-11T02:04:13.780Z,16.4
2022-10-11T02:06:45.491Z,16.4
2022-10-11T02:09:16.229Z,16.5
2022-10-11T02:11:48.787Z,16.5
2022-10-11T02:14:20.344Z,16.5
2022-10-11T02:16:51.819Z,16.5
2022-10-11T02:19:23.454Z,16.5
2022-10-11T02:21:54.516Z,16.3
2022-10-11T02:24:26.244Z,16.4
2022-10-11T02:26:57.105Z,16.4
2022-10-11T02:29:29.774Z,16.5
2022-10-11T02:32:01.436Z,16.5
2022-10-11T02:34:33.660Z,16.5
2022-10-11T02:37:04.671Z,16.4
2022-10-11T02:39:36.639Z,16.5
2022-10-11T02:42:09.042Z,16.5
2022-10-11T02:44:40.901Z,16.5
2022-10-11T02:47:12.225Z,16.4
2022-10-11T02:49:41.847Z,16.3
2022-10-11T02:52:13.104Z,16.4
2022-10-11T02:54:44.451Z,16.3
2022-10-11T02:57:15.745Z,16.3
2022-10-11T02:59:47.391Z,16.3
2022-10-11T03:02:17.159Z,16.4
2022-10-11T03:04:48.890Z,16.4
2022-10-11T03:07:20.131Z,16.3
2022-10-11T03:09:51.689Z,16.3
2022-10-11T03:12:22.269Z,16.4
2022-10-11T03:14:53.288Z,16.4
2022-10-11T03:17:41.517Z,16.4
2022-10-11T03:19:57.451Z,16.4
2022-10-11T03:22:28.926Z,16.4
2022-10-11T03:25:03.884Z,16.4
2022-10-11T03:27:31.993Z,16.3
2022-10-11T03:30:03.199Z,16.3
2022-10-11T03:32:34.174Z,16.3
2022-10-11T03:35:05.260Z,16.4
2022-10-11T03:37:36.547Z,16.3
2022-10-11T03:40:07.702Z,16.2
2022-10-11T03:42:39.656Z,16.3
2022-10-11T03:45:12.042Z,16.3
2022-10-11T03:47:42.639Z,16.4
2022-10-11T03:50:13.859Z,16.3
2022-10-11T03:52:44.639Z,16.2
2022-10-11T03:55:15.535Z,16.3
2022-10-11T03:57:46.506Z,16.3
2022-10-11T04:00:17.479Z,16.3
2022-10-11T04:02:49.113Z,16.4
2022-10-11T04:05:19.943Z,16.4
2022-10-11T04:07:49.307Z,16.4
2022-10-11T04:10:21.183Z,16.4
2022-10-11T04:12:52.602Z,16.4
2022-10-11T04:15:24.738Z,16.3
2022-10-11T04:17:55.871Z,16.2
2022-10-11T04:20:25.490Z,16.4
2022-10-11T04:22:56.519Z,16.3
2022-10-11T04:25:28.280Z,16.4
2022-10-11T04:28:00.150Z,16.3
2022-10-11T04:30:31.059Z,16.4
2022-10-11T04:33:02.240Z,16.4
2022-10-11T04:35:33.248Z,16.3
2022-10-11T04:38:04.332Z,16.4
2022-10-11T04:40:39.259Z,16.4
2022-10-11T04:43:14.555Z,16.4
2022-10-11T04:45:45.513Z,16.4
2022-10-11T04:48:17.701Z,16.4
2022-10-11T04:50:49.300Z,16.4
2022-10-11T04:53:20.107Z,16.4
2022-10-11T04:55:51.279Z,16.4
2022-10-11T04:58:22.444Z,16.5
2022-10-11T05:00:53.782Z,16.3
2022-10-11T05:03:26.525Z,16.3
2022-10-11T05:05:58.003Z,16.4
2022-10-11T05:08:28.504Z,16.4
2022-10-11T05:11:03.109Z,16.3
2022-10-11T05:13:34.626Z,16.4
2022-10-11T05:16:09.709Z,16.4
2022-10-11T05:18:36.379Z,16.4
2022-10-11T05:21:07.392Z,16.3
2022-10-11T05:23:36.988Z,16.3
2022-10-11T05:26:09.198Z,16.3
2022-10-11T05:28:42.922Z,16.3
2022-10-11T05:31:13.788Z,16.2
2022-10-11T05:33:44.483Z,16.3
2022-10-11T05:36:15.903Z,16.4
2022-10-11T05:38:47.170Z,16.4
2022-10-11T05:41:19.495Z,16.4
2022-10-11T05:43:50.611Z,16.4
2022-10-11T05:46:21.295Z,16.4
2022-10-11T05:48:57.253Z,16.6
2022-10-11T05:51:28.421Z,16.5
2022-10-11T05:53:59.458Z,16.5
2022-10-11T05:56:30.701Z,16.5
2022-10-11T05:59:02.625Z,16.6
2022-10-11T06:01:32.894Z,16.6
2022-10-11T06:04:09.353Z,16.6
2022-10-11T06:06:40.315Z,16.7
2022-10-11T06:09:11.259Z,16.7
2022-10-11T06:11:42.333Z,16.5
2022-10-11T06:14:12.849Z,16.6
2022-10-11T06:16:43.781Z,16.7
2022-10-11T06:19:15.391Z,16.7
2022-10-11T06:21:46.203Z,16.8
2022-10-11T06:24:15.325Z,16.9
2022-10-11T06:26:46.911Z,16.9
2022-10-11T06:29:18.632Z,16.8
2022-10-11T06:31:51.267Z,17
2022-10-11T06:34:20.519Z,17
2022-10-11T06:36:51.357Z,17
2022-10-11T06:39:23.790Z,17
2022-10-11T06:41:55.142Z,17
2022-10-11T06:44:26.375Z,17.1
2022-10-11T06:46:57.415Z,17.1
2022-10-11T06:49:26.531Z,17.1
2022-10-11T06:51:57.109Z,17.1
2022-10-11T06:54:28.230Z,17
2022-10-11T06:56:59.385Z,17
2022-10-11T06:59:29.868Z,17.1
2022-10-11T07:02:02.462Z,17.1
2022-10-11T07:04:33.145Z,17.2
2022-10-11T07:07:03.646Z,17.1
2022-10-11T07:09:34.455Z,17.2
2022-10-11T07:12:06.308Z,17.2
2022-10-11T07:14:36.871Z,17.3
2022-10-11T07:17:06.543Z,17.3
2022-10-11T07:19:37.644Z,17.4
2022-10-11T07:22:09.079Z,17.4
2022-10-11T07:24:39.358Z,17.4
2022-10-11T07:27:10.378Z,17.4
2022-10-11T07:29:41.258Z,17.4
2022-10-11T07:32:12.072Z,17.5
2022-10-11T07:34:43.114Z,17.6
2022-10-11T07:37:13.873Z,17.6
2022-10-11T07:39:44.440Z,17.6
2022-10-11T07:42:17.776Z,17.6
2022-10-11T07:44:49.255Z,17.7
2022-10-11T07:47:19.826Z,17.7
2022-10-11T07:49:50.296Z,17.6
2022-10-11T07:52:21.645Z,17.6
2022-10-11T07:54:52.105Z,17.7
2022-10-11T07:57:23.028Z,17.8
2022-10-11T07:59:53.767Z,17.8
2022-10-11T08:02:24.891Z,17.9
2022-10-11T08:04:55.733Z,18
2022-10-11T08:07:32.690Z,18
2022-10-11T08:10:02.647Z,18
2022-10-11T08:12:33.191Z,18
2022-10-11T08:15:03.595Z,18
2022-10-11T08:17:35.330Z,18
2022-10-11T08:20:06.379Z,18.1
2022-10-11T08:22:37.882Z,18.1
2022-10-11T08:25:07.780Z,18
2022-10-11T08:27:37.217Z,18.1
2022-10-11T08:30:10.467Z,18.1
2022-10-11T08:32:41.118Z,18.1
2022-10-11T08:35:11.730Z,18.2
2022-10-11T08:37:42.535Z,18.2
2022-10-11T08:40:12.733Z,18.2
2022-10-11T08:42:43.671Z,18.2
2022-10-11T08:45:14.856Z,18.1
2022-10-11T08:47:45.981Z,18.1
2022-10-11T08:50:16.912Z,18.3
2022-10-11T08:52:49.489Z,18.3
2022-10-11T08:55:19.914Z,18.3
2022-10-11T08:57:51.474Z,18.4
2022-10-11T09:00:23.166Z,18.2
2022-10-11T09:03:07.862Z,18.3
2022-10-11T09:05:24.441Z,18.3
2022-10-11T09:07:56.684Z,18.4
2022-10-11T09:10:28.625Z,18.5
2022-10-11T09:12:58.360Z,18.5
2022-10-11T09:15:29.101Z,18.5
2022-10-11T09:17:59.332Z,18.5
2022-10-11T09:20:31.033Z,18.5
2022-10-11T09:23:02.200Z,18.6
2022-10-11T09:25:34.515Z,18.6
2022-10-11T09:28:04.022Z,18.6
2022-10-11T09:30:34.177Z,18.6
2022-10-11T09:33:04.581Z,18.6
2022-10-11T09:35:35.089Z,18.7
2022-10-11T09:38:07.787Z,18.6
2022-10-11T09:40:39.359Z,18.6
2022-10-11T09:43:10.403Z,18.5
2022-10-11T09:45:45.693Z,18.6
2022-10-11T09:48:16.196Z,18.6
2022-10-11T09:50:47.391Z,18.7
2022-10-11T09:53:18.292Z,18.6
2022-10-11T09:55:49.184Z,18.6
2022-10-11T09:58:19.691Z,18.6
2022-10-11T10:00:50.580Z,18.7
2022-10-11T10:03:29.321Z,18.7
2022-10-11T10:06:01.470Z,18.8
2022-10-11T10:08:32.183Z,18.7
2022-10-11T10:11:02.598Z,18.6
2022-10-11T10:13:33.377Z,18.7
2022-10-11T10:16:05.528Z,18.7
2022-10-11T10:18:37.598Z,18.8
2022-10-11T10:21:08.786Z,18.7
2022-10-11T10:23:38.875Z,18.7
2022-10-11T10:26:09.321Z,18.7
2022-10-11T10:28:40.133Z,18.8
2022-10-11T10:31:11.036Z,18.9
2022-10-11T10:33:41.595Z,18.8
2022-10-11T10:36:12.548Z,18.9
2022-10-11T10:38:43.532Z,18.8
2022-10-11T10:41:14.084Z,18.9
2022-10-11T10:43:44.589Z,18.9
2022-10-11T10:46:15.178Z,19
2022-10-11T10:49:23.474Z,19
2022-10-11T10:51:17.218Z,18.9
2022-10-11T10:53:47.426Z,18.9
2022-10-11T10:56:27.039Z,18.9
2022-10-11T10:58:57.178Z,19
2022-10-11T11:01:26.087Z,19
2022-10-11T11:03:56.992Z,19
2022-10-11T11:06:32.851Z,19
2022-10-11T11:09:02.492Z,19
2022-10-11T11:11:32.545Z,19.1
2022-10-11T11:14:04.463Z,19.1
2022-10-11T11:16:36.451Z,19.1
2022-10-11T11:19:07.433Z,19.2
2022-10-11T11:21:41.460Z,19.1
2022-10-11T11:24:09.452Z,19.1
2022-10-11T11:26:44.113Z,19
2022-10-11T11:29:13.229Z,19.1
2022-10-11T11:31:45.141Z,19
2022-10-11T11:34:15.602Z,19
2022-10-11T11:36:46.596Z,19
2022-10-11T11:39:18.703Z,19
2022-10-11T11:41:49.372Z,19
2022-10-11T11:44:25.103Z,19
2022-10-11T11:46:54.501Z,19
2022-10-11T11:49:29.327Z,19
2022-10-11T11:52:00.695Z,19
2022-10-11T11:54:32.311Z,19.1
2022-10-11T11:57:03.220Z,19
2022-10-11T11:59:35.114Z,19.1
2022-10-11T12:02:06.251Z,19.1
2022-10-11T12:04:37.030Z,19.1
2022-10-11T12:07:22.651Z,19.2
2022-10-11T12:09:38.737Z,19.2
2022-10-11T12:12:09.678Z,19.2
2022-10-11T12:14:40.217Z,19.2
2022-10-11T12:17:11.069Z,19.2
2022-10-11T12:19:41.937Z,19.2
2022-10-11T12:22:13.329Z,19.1
2022-10-11T12:24:44.238Z,19.1
2022-10-11T12:27:14.805Z,19.1
2022-10-11T12:29:45.716Z,19.1
2022-10-11T12:32:16.565Z,19.1
2022-10-11T12:34:47.308Z,19.1
2022-10-11T12:37:17.603Z,19.1
2022-10-11T12:39:46.639Z,19.1
2022-10-11T12:42:17.870Z,19.1
2022-10-11T12:44:49.439Z,19.2
2022-10-11T12:47:20.238Z,19
2022-10-11T12:49:51.541Z,19.1
2022-10-11T12:52:22.565Z,19.1
2022-10-11T12:54:54.105Z,19.1
2022-10-11T12:57:26.474Z,19.1
2022-10-11T12:59:58.347Z,19.2
2022-10-11T13:02:30.629Z,19.2
2022-10-11T13:05:03.007Z,19.3
2022-10-11T13:07:33.743Z,19.3
2022-10-11T13:10:04.990Z,19.2
2022-10-11T13:12:36.067Z,19.2
2022-10-11T13:15:07.671Z,19.2
2022-10-11T13:17:38.965Z,19.1
2022-10-11T13:20:12.130Z,19.2
2022-10-11T13:22:44.275Z,19.2
2022-10-11T13:25:15.793Z,19
2022-10-11T13:27:47.141Z,19.1
2022-10-11T13:30:18.028Z,18.9
2022-10-11T13:32:49.053Z,19
2022-10-11T13:35:22.316Z,19
2022-10-11T13:37:51.994Z,19
2022-10-11T13:40:23.266Z,19.1
2022-10-11T13:42:54.520Z,19
2022-10-11T13:45:25.683Z,19.1
2022-10-11T13:47:56.994Z,19.1
2022-10-11T13:50:28.663Z,19.2
2022-10-11T13:53:00.954Z,19.2
2022-10-11T13:55:34.038Z,19.2
2022-10-11T13:58:05.511Z,19.1
2022-10-11T14:00:40.720Z,19.1
2022-10-11T14:03:12.422Z,19.2
2022-10-11T14:05:43.756Z,19.2
2022-10-11T14:08:14.762Z,19.1
2022-10-11T14:10:47.423Z,19.1
2022-10-11T14:13:19.349Z,19.2
2022-10-11T14:15:51.418Z,19.2
2022-10-11T14:18:22.670Z,19.2
2022-10-11T14:20:54.835Z,19.2
2022-10-11T14:23:26.538Z,19.2
2022-10-11T14:25:58.186Z,19.1
2022-10-11T14:28:29.442Z,19.1
2022-10-11T14:31:01.031Z,19.1
2022-10-11T14:33:33.662Z,19.1
2022-10-11T14:36:05.402Z,19.1
2022-10-11T14:38:37.310Z,19.1
2022-10-11T14:41:08.365Z,19.1
2022-10-11T14:43:39.481Z,19.1
2022-10-11T14:46:11.641Z,19.1
2022-10-11T14:48:54.759Z,19.2
2022-10-11T14:51:15.290Z,19.1
2022-10-11T14:53:46.522Z,19.1
2022-10-11T14:56:21.213Z,19
2022-10-11T14:58:49.169Z,19.1
2022-10-11T15:01:20.378Z,19.1
2022-10-11T15:03:53.289Z,19
2022-10-11T15:06:24.842Z,18.9
2022-10-11T15:08:56.562Z,18.9
2022-10-11T15:11:29.140Z,18.8
2022-10-11T15:14:00.640Z,18.9
2022-10-11T15:16:31.460Z,18.9
2022-10-11T15:19:05.772Z,18.8
2022-10-11T15:21:37.040Z,18.8
2022-10-11T15:24:08.354Z,18.8
2022-10-11T15:26:39.542Z,18.6
2022-10-11T15:29:10.931Z,18.7
2022-10-11T15:31:43.647Z,18.7
2022-10-11T15:34:14.758Z,18.7
2022-10-11T15:36:45.919Z,18.7
2022-10-11T15:39:17.615Z,18.8
2022-10-11T15:41:49.161Z,18.7
2022-10-11T15:44:26.667Z,18.7
2022-10-11T15:46:59.230Z,18.8
2022-10-11T15:49:30.771Z,18.8
2022-10-11T15:52:01.680Z,18.6
2022-10-11T15:54:34.609Z,18.7
2022-10-11T15:57:07.387Z,18.6
2022-10-11T15:59:38.870Z,18.6
2022-10-11T16:02:11.801Z,18.5
2022-10-11T16:04:43.598Z,18.4
2022-10-11T16:07:15.610Z,18.5
2022-10-11T16:09:46.785Z,18.6
2022-10-11T16:12:27.136Z,18.6
2022-10-11T16:14:58.602Z,18.6
2022-10-11T16:17:33.242Z,18.6
2022-10-11T16:20:05.020Z,18.6
2022-10-11T16:22:37.131Z,18.6
2022-10-11T16:25:08.127Z,18.6
2022-10-11T16:27:38.769Z,18.6
2022-10-11T16:30:11.229Z,18.7
2022-10-11T16:32:42.378Z,18.6
2022-10-11T16:35:12.590Z,18.6
2022-10-11T16:37:43.958Z,18.5
2022-10-11T16:40:15.141Z,18.5
2022-10-11T16:42:47.101Z,18.5
2022-10-11T16:45:18.769Z,18.4
2022-10-11T16:47:51.625Z,18.4
2022-10-11T16:50:23.670Z,18.4
2022-10-11T16:52:54.061Z,18.4
2022-10-11T16:55:29.227Z,18.3
2022-10-11T16:58:02.212Z,18.3
2022-10-11T17:00:32.021Z,18.3
2022-10-11T17:03:03.034Z,18.3
2022-10-11T17:05:36.405Z,18.3
2022-10-11T17:08:09.865Z,18.2
2022-10-11T17:10:41.061Z,18.2
2022-10-11T17:13:10.750Z,18.1
2022-10-11T17:15:41.830Z,18.1
2022-10-11T17:18:17.729Z,18.1
2022-10-11T17:20:47.712Z,18.2
2022-10-11T17:23:19.044Z,18.2
2022-10-11T17:25:50.107Z,18.2
2022-10-11T17:28:22.542Z,18.1
2022-10-11T17:30:53.568Z,18
2022-10-11T17:33:23.999Z,18.1
2022-10-11T17:35:56.246Z,18.1
2022-10-11T17:38:27.641Z,18
2022-10-11T17:40:59.787Z,18
2022-10-11T17:43:31.195Z,17.9
2022-10-11T17:46:05.787Z,17.9
2022-10-11T17:48:37.225Z,17.9
2022-10-11T17:51:08.497Z,17.9
2022-10-11T17:53:44.745Z,17.9
2022-10-11T17:56:21.841Z,18
2022-10-11T17:58:51.469Z,17.9
2022-10-11T18:01:23.148Z,17.9
2022-10-11T18:03:55.390Z,17.9
2022-10-11T18:06:27.084Z,17.8
2022-10-11T18:08:58.617Z,17.8
2022-10-11T18:11:29.740Z,17.8
2022-10-11T18:13:59.122Z,17.8
2022-10-11T18:16:30.391Z,17.8
2022-10-11T18:19:01.862Z,17.8
2022-10-11T18:21:35.284Z,17.9
2022-10-11T18:24:07.101Z,17.9
2022-10-11T18:26:40.066Z,17.9
2022-10-11T18:29:11.479Z,17.8
2022-10-11T18:31:44.000Z,17.8
2022-10-11T18:34:15.140Z,17.8
2022-10-11T18:36:46.330Z,17.7
2022-10-11T18:39:17.836Z,17.6
2022-10-11T18:41:54.059Z,17.5
2022-10-11T18:44:25.231Z,17.5
2022-10-11T18:46:58.212Z,17.6
2022-10-11T18:49:30.608Z,17.5
2022-10-11T18:52:02.728Z,17.5
2022-10-11T18:54:33.931Z,17.6
2022-10-11T18:57:05.103Z,17.5
2022-10-11T18:59:35.327Z,17.6
2022-10-11T19:02:06.700Z,17.5
2022-10-11T19:04:40.134Z,17.5
2022-10-11T19:07:11.626Z,17.4
2022-10-11T19:09:42.633Z,17.2
2022-10-11T19:12:13.879Z,17.3
2022-10-11T19:14:45.164Z,17.3
2022-10-11T19:17:16.439Z,17.3
2022-10-11T19:19:48.274Z,17.3
2022-10-11T19:22:19.584Z,17.4
2022-10-11T19:24:52.228Z,17.4
2022-10-11T19:27:25.833Z,17.4
2022-10-11T19:29:55.488Z,17.4
2022-10-11T19:32:26.384Z,17.4
2022-10-11T19:35:03.148Z,17.5
2022-10-11T19:37:38.595Z,17.5
2022-10-11T19:40:10.085Z,17.5
2022-10-11T19:42:41.536Z,17.4
2022-10-11T19:45:14.030Z,17.3
2022-10-11T19:47:45.497Z,17.4
2022-10-11T19:50:17.065Z,17.3
2022-10-11T19:52:48.558Z,17.4
2022-10-11T19:55:19.517Z,17.3
2022-10-11T19:57:51.649Z,17.3
2022-10-11T20:00:24.215Z,17.3
2022-10-11T20:02:59.315Z,17.4
2022-10-11T20:05:30.948Z,17.4
2022-10-11T20:08:03.171Z,17.4
2022-10-11T20:10:40.064Z,17.4
2022-10-11T20:13:12.602Z,17.5
2022-10-11T20:15:43.943Z,17.5
2022-10-11T20:18:17.396Z,17.4
2022-10-11T20:20:48.940Z,17.3
2022-10-11T20:23:21.465Z,17.3
2022-10-11T20:25:50.645Z,17.3
2022-10-11T20:28:26.595Z,17.3
2022-10-11T20:30:57.723Z,17.4
2022-10-11T20:33:29.680Z,17.4
2022-10-11T20:36:00.726Z,17.3
2022-10-11T20:38:33.069Z,17.2
2022-10-11T20:41:04.526Z,17.3
2022-10-11T20:43:36.408Z,17.3
2022-10-11T20:46:08.104Z,17.4
2022-10-11T20:48:39.766Z,17.4
2022-10-11T20:51:11.701Z,17.4
2022-10-11T20:53:43.865Z,17.5
2022-10-11T20:56:18.255Z,17.4
2022-10-11T20:58:49.804Z,17.5
2022-10-11T21:01:22.036Z,17.5
2022-10-11T21:03:53.174Z,17.5
2022-10-11T21:06:24.969Z,17.5
2022-10-11T21:08:57.383Z,17.5
2022-10-11T21:11:29.004Z,17.4
2022-10-11T21:14:00.293Z,17.5
2022-10-11T21:16:32.033Z,17.4
2022-10-11T21:19:02.997Z,17.4
2022-10-11T21:21:34.222Z,17.4
2022-10-11T21:24:05.823Z,17.4
2022-10-11T21:26:37.126Z,17.4
2022-10-11T21:29:08.840Z,17.3
2022-10-11T21:31:41.234Z,17.4
2022-10-11T21:34:14.573Z,17.3
2022-10-11T21:36:48.936Z,17.3
2022-10-11T21:39:22.755Z,17.3
2022-10-11T21:41:55.411Z,17.3
2022-10-11T21:44:26.947Z,17.3
2022-10-11T21:47:07.323Z,17.3
2022-10-11T21:49:29.530Z,17.3
2022-10-11T21:52:01.195Z,17.3
2022-10-11T21:54:32.731Z,17.3
2022-10-11T21:57:04.673Z,17.3
2022-10-11T21:59:36.741Z,17.1
2022-10-11T22:02:07.924Z,17.2
2022-10-11T22:04:39.782Z,17.2
2022-10-11T22:07:10.974Z,17.3
2022-10-11T22:09:43.690Z,17.3
2022-10-11T22:12:17.463Z,17.1
2022-10-11T22:14:46.601Z,17.1
2022-10-11T22:17:17.818Z,17.1
2022-10-11T22:19:51.684Z,17.1
2022-10-11T22:22:23.319Z,17.1
2022-10-11T22:24:52.577Z,17.1
2022-10-11T22:27:23.092Z,17.1
2022-10-11T22:29:53.620Z,17.1
2022-10-11T22:32:24.316Z,17
2022-10-11T22:34:55.077Z,17
2022-10-11T22:37:25.474Z,16.9
2022-10-11T22:39:56.214Z,17
2022-10-11T22:42:27.550Z,17
2022-10-11T22:44:57.492Z,17
2022-10-11T22:47:28.617Z,17
2022-10-11T22:49:59.027Z,17
2022-10-11T22:52:30.086Z,16.9
2022-10-11T22:55:01.266Z,16.9
2022-10-11T22:57:34.077Z,17
2022-10-11T23:00:04.258Z,16.9
2022-10-11T23:02:35.096Z,16.7
2022-10-11T23:05:07.922Z,16.8
2022-10-11T23:07:40.837Z,16.9
2022-10-11T23:10:11.823Z,16.9
2022-10-11T23:12:43.301Z,16.9
2022-10-11T23:15:14.831Z,16.9
2022-10-11T23:17:46.378Z,16.9
2022-10-11T23:20:18.018Z,17
2022-10-11T23:22:48.988Z,17
2022-10-11T23:25:19.751Z,17
2022-10-11T23:27:51.420Z,17
2022-10-11T23:30:22.685Z,16.9
2022-10-11T23:32:53.499Z,17
2022-10-11T23:35:24.270Z,16.9
2022-10-11T23:37:55.287Z,17
2022-10-11T23:40:26.480Z,16.9
2022-10-11T23:42:57.368Z,17
2022-10-11T23:45:27.034Z,16.9
2022-10-11T23:47:58.508Z,17
2022-10-11T23:50:30.731Z,17
2022-10-11T23:53:01.980Z,17
2022-10-11T23:55:33.416Z,17
2022-10-11T23:58:04.315Z,17
